Time;durP1;ratioP1;P1;durP2;ratioP2;P2;SDS_P1;SDS_P2;PMS_P1;PMS_P2;Temp;Humidity;BMP_temperature;BMP_pressure;BME280_temperature;BME280_humidity;BME280_pressure;Samples;Min_cycle;Max_cycle;Signal;HPM_P1;HPM_P2
2022/11/30 00:01:17;;;;;;;39.80;17.17;;;6.60;99.90;;;;;;5091761;28;20051;-84
2022/11/30 00:03:43;;;;;;;36.83;17.33;;;6.00;99.90;;;;;;5109665;28;20042;-84
2022/11/30 00:06:15;;;;;;;39.80;17.83;;;6.50;99.90;;;;;;5109157;28;20043;-83
2022/11/30 00:08:42;;;;;;;40.05;17.60;;;5.90;99.90;;;;;;5092805;28;20123;-84
2022/11/30 00:11:09;;;;;;;39.63;17.38;;;5.90;99.90;;;;;;5076101;28;20126;-84
2022/11/30 00:13:36;;;;;;;40.83;18.33;;;6.00;99.90;;;;;;5092507;28;20044;-84
2022/11/30 00:16:03;;;;;;;40.90;18.83;;;6.00;99.90;;;;;;5076027;28;20514;-84
2022/11/30 00:18:30;;;;;;;39.55;18.63;;;5.90;99.90;;;;;;5075773;28;20683;-84
2022/11/30 00:21:01;;;;;;;37.45;17.98;;;5.90;99.90;;;;;;5092781;28;20097;-84
2022/11/30 00:23:32;;;;;;;40.25;18.02;;;5.90;99.90;;;;;;5092540;28;20040;-84
2022/11/30 00:26:01;;;;;;;47.63;20.48;;;5.90;99.90;;;;;;5075773;28;20098;-84
2022/11/30 00:28:30;;;;;;;43.38;18.08;;;5.90;99.90;;;;;;5108814;28;20036;-84
2022/11/30 00:30:58;;;;;;;42.55;18.95;;;5.90;99.90;;;;;;5076257;28;20044;-85
2022/11/30 00:33:24;;;;;;;43.95;20.10;;;5.90;99.90;;;;;;5059535;28;20032;-84
2022/11/30 00:35:56;;;;;;;44.58;17.73;;;5.90;99.90;;;;;;5109161;28;20397;-84
2022/11/30 00:38:24;;;;;;;40.88;18.35;;;5.90;99.90;;;;;;5076041;28;20032;-84
2022/11/30 00:40:50;;;;;;;45.17;17.85;;;5.90;99.90;;;;;;5059781;28;20051;-84
2022/11/30 00:43:17;;;;;;;38.35;17.77;;;5.90;99.90;;;;;;5059277;28;20044;-84
2022/11/30 00:45:44;;;;;;;35.78;17.25;;;5.80;99.90;;;;;;5076226;28;20134;-84
2022/11/30 00:48:10;;;;;;;40.17;17.27;;;5.90;99.90;;;;;;5076002;28;20043;-84
2022/11/30 00:50:37;;;;;;;42.15;18.55;;;5.80;99.90;;;;;;5059197;28;20055;-84
2022/11/30 00:53:04;;;;;;;41.67;18.15;;;5.80;99.90;;;;;;5092413;28;20032;-84
2022/11/30 00:55:32;;;;;;;39.35;17.02;;;6.10;99.90;;;;;;5055769;28;20036;-85
2022/11/30 00:57:59;;;;;;;38.20;17.42;;;5.80;99.90;;;;;;5059525;28;20381;-84
2022/11/30 01:00:27;;;;;;;46.47;17.40;;;5.80;99.90;;;;;;5075329;28;20051;-84
2022/11/30 01:02:54;;;;;;;42.25;18.48;;;6.20;99.90;;;;;;5092203;28;20405;-84
2022/11/30 01:05:21;;;;;;;44.63;17.90;;;5.80;99.90;;;;;;5091815;28;20054;-84
2022/11/30 01:07:48;;;;;;;43.72;19.23;;;5.90;99.90;;;;;;5059487;28;20048;-84
2022/11/30 01:10:15;;;;;;;48.67;19.85;;;5.80;99.90;;;;;;5059315;28;20779;-84
2022/11/30 01:12:41;;;;;;;43.85;17.48;;;5.80;99.90;;;;;;5077074;28;20044;-84
2022/11/30 01:15:08;;;;;;;39.55;17.35;;;5.80;99.90;;;;;;5079592;28;20102;-84
2022/11/30 01:17:35;;;;;;;44.97;19.17;;;5.80;99.90;;;;;;5079037;28;20042;-84
2022/11/30 01:20:02;;;;;;;46.30;18.58;;;6.20;99.90;;;;;;5062514;28;20044;-84
2022/11/30 01:22:29;;;;;;;47.80;19.40;;;5.80;99.90;;;;;;5095549;28;20131;-84
2022/11/30 01:24:56;;;;;;;39.53;19.38;;;5.80;99.90;;;;;;5095578;28;20131;-84
2022/11/30 01:27:22;;;;;;;40.70;18.88;;;6.00;99.90;;;;;;5112056;28;20035;-84
2022/11/30 01:29:49;;;;;;;46.00;18.70;;;5.80;99.90;;;;;;5078526;28;20036;-84
2022/11/30 01:32:16;;;;;;;47.92;19.20;;;5.70;99.90;;;;;;5078929;28;20085;-84
2022/11/30 01:34:42;;;;;;;46.70;19.60;;;5.70;99.90;;;;;;5062079;28;20074;-84
2022/11/30 01:37:09;;;;;;;46.03;19.30;;;5.70;99.90;;;;;;5062568;28;20032;-84
2022/11/30 01:39:36;;;;;;;47.67;19.33;;;5.80;99.90;;;;;;5078612;28;20092;-84
2022/11/30 01:42:02;;;;;;;49.83;20.75;;;5.80;99.90;;;;;;5062191;28;20044;-84
2022/11/30 01:44:29;;;;;;;45.45;19.15;;;5.70;99.90;;;;;;5078714;28;20044;-84
2022/11/30 01:47:03;;;;;;;43.08;19.60;;;5.70;99.90;;;;;;5095638;28;20044;-84
2022/11/30 01:49:35;;;;;;;40.50;18.08;;;5.60;99.90;;;;;;5095175;28;20075;-84
2022/11/30 01:52:06;;;;;;;39.03;17.40;;;5.70;99.90;;;;;;5095167;28;20470;-84
2022/11/30 01:54:39;;;;;;;44.60;18.45;;;5.70;99.90;;;;;;5095007;28;20035;-84
2022/11/30 01:57:25;;;;;;;40.25;18.13;;;5.70;99.90;;;;;;5095020;28;20487;-84
2022/11/30 01:59:55;;;;;;;41.92;19.15;;;5.70;99.90;;;;;;5094600;28;20472;-83
2022/11/30 02:02:31;;;;;;;36.08;17.20;;;5.80;99.90;;;;;;5078466;28;20049;-84
2022/11/30 02:04:58;;;;;;;35.47;17.20;;;5.70;99.90;;;;;;5094666;28;20044;-84
2022/11/30 02:07:25;;;;;;;40.10;18.23;;;5.70;99.90;;;;;;5078309;28;20127;-84
2022/11/30 02:09:52;;;;;;;41.45;18.20;;;5.70;99.90;;;;;;5078172;28;20046;-84
2022/11/30 02:12:36;;;;;;;38.10;17.27;;;5.70;99.90;;;;;;5061096;28;20036;-84
2022/11/30 02:15:09;;;;;;;49.75;19.45;;;5.70;99.90;;;;;;5074553;28;20047;-84
2022/11/30 02:17:54;;;;;;;40.05;17.00;;;5.70;99.90;;;;;;5090920;28;20045;-84
2022/11/30 02:20:58;;;;;;;45.55;19.75;;;5.70;99.90;;;;;;5074856;28;20143;-84
2022/11/30 02:23:28;;;;;;;42.78;19.92;;;5.70;99.90;;;;;;5074036;28;20095;-84
2022/11/30 02:26:13;;;;;;;50.22;19.55;;;5.70;99.90;;;;;;5090807;28;20055;-84
2022/11/30 02:28:53;;;;;;;49.05;19.85;;;5.70;99.90;;;;;;5074234;28;20044;-84
2022/11/30 02:31:25;;;;;;;44.17;18.80;;;5.70;99.90;;;;;;5077359;28;20068;-84
2022/11/30 02:33:55;;;;;;;42.90;18.48;;;5.70;99.90;;;;;;5094025;28;20089;-84
2022/11/30 02:36:23;;;;;;;45.13;19.00;;;5.70;99.90;;;;;;5094259;28;20044;-84
2022/11/30 02:38:51;;;;;;;36.75;17.08;;;5.70;99.90;;;;;;5073549;28;20039;-84
2022/11/30 02:41:17;;;;;;;38.40;18.15;;;5.60;99.90;;;;;;5073895;28;20047;-84
2022/11/30 02:43:44;;;;;;;43.95;18.45;;;5.60;99.90;;;;;;5073945;28;20509;-84
2022/11/30 02:46:40;;;;;;;38.38;18.27;;;5.60;99.90;;;;;;5090711;28;20094;-84
2022/11/30 02:49:17;;;;;;;39.50;17.40;;;5.60;99.90;;;;;;5073480;28;20497;-84
2022/11/30 02:51:45;;;;;;;38.28;17.23;;;5.60;99.90;;;;;;5073356;28;20033;-84
2022/11/30 02:54:12;;;;;;;36.95;16.42;;;5.60;99.90;;;;;;5073601;28;20485;-84
2022/11/30 02:56:39;;;;;;;38.72;16.80;;;5.60;99.90;;;;;;5057009;28;20048;-84
2022/11/30 02:59:06;;;;;;;37.78;16.98;;;5.60;99.90;;;;;;5060316;28;20131;-84
2022/11/30 03:01:32;;;;;;;40.05;17.92;;;5.60;99.90;;;;;;5093912;28;20043;-85
2022/11/30 03:04:05;;;;;;;38.30;17.08;;;5.60;99.90;;;;;;5110543;28;20098;-85
2022/11/30 03:06:32;;;;;;;38.35;17.02;;;5.60;99.90;;;;;;5060573;28;20044;-84
2022/11/30 03:08:58;;;;;;;35.80;17.35;;;5.90;99.90;;;;;;5060275;28;20510;-85
2022/11/30 03:11:25;;;;;;;37.80;17.45;;;5.60;99.90;;;;;;5076914;28;20036;-85
2022/11/30 03:13:52;;;;;;;37.20;16.73;;;5.60;99.90;;;;;;5076993;28;20067;-85
2022/11/30 03:16:19;;;;;;;37.72;16.40;;;5.60;99.90;;;;;;5060503;28;20036;-84
2022/11/30 03:18:45;;;;;;;34.80;16.60;;;5.60;99.90;;;;;;5060031;28;20411;-85
2022/11/30 03:21:12;;;;;;;35.58;16.77;;;6.20;99.90;;;;;;5077138;28;20054;-85
2022/11/30 03:23:39;;;;;;;35.33;16.92;;;5.60;99.90;;;;;;5076466;28;20039;-84
2022/11/30 03:26:07;;;;;;;32.17;15.30;;;5.90;99.90;;;;;;5060327;28;20040;-85
2022/11/30 03:28:35;;;;;;;33.03;15.30;;;5.60;99.90;;;;;;5076686;28;20101;-85
2022/11/30 03:31:02;;;;;;;34.28;16.23;;;6.10;99.90;;;;;;5092749;28;20040;-84
2022/11/30 03:33:28;;;;;;;35.15;16.73;;;5.70;99.90;;;;;;5070861;28;20040;-85
2022/11/30 03:36:04;;;;;;;32.38;15.00;;;5.60;99.90;;;;;;5062313;28;20028;-85
2022/11/30 03:38:31;;;;;;;36.00;15.93;;;5.60;99.90;;;;;;5090440;28;20506;-85
2022/11/30 03:41:07;;;;;;;35.40;15.40;;;5.60;99.90;;;;;;5090435;28;20507;-85
2022/11/30 03:43:34;;;;;;;32.92;15.65;;;5.60;99.90;;;;;;5106464;28;20115;-85
2022/11/30 03:46:00;;;;;;;31.55;15.52;;;5.70;99.90;;;;;;5064290;28;20870;-85
2022/11/30 03:48:27;;;;;;;33.13;15.15;;;5.70;99.90;;;;;;5059413;28;20097;-85
2022/11/30 03:50:54;;;;;;;36.28;16.92;;;5.60;99.90;;;;;;5040178;28;20040;-85
2022/11/30 03:53:22;;;;;;;34.95;15.82;;;5.60;99.90;;;;;;5056226;28;20072;-85
2022/11/30 03:55:54;;;;;;;35.58;16.77;;;5.70;99.90;;;;;;5089139;28;20051;-85
2022/11/30 03:58:22;;;;;;;30.65;14.18;;;5.60;99.90;;;;;;5072134;28;20517;-85
2022/11/30 04:00:58;;;;;;;33.40;15.77;;;5.60;99.90;;;;;;5086200;28;20040;-85
2022/11/30 04:03:25;;;;;;;33.53;15.50;;;5.60;99.90;;;;;;5077532;28;20044;-85
2022/11/30 04:05:51;;;;;;;31.95;15.13;;;5.70;99.90;;;;;;5076262;28;20568;-85
2022/11/30 04:08:18;;;;;;;32.53;15.02;;;5.60;99.90;;;;;;5109627;28;20075;-85
2022/11/30 04:10:52;;;;;;;34.08;15.60;;;5.60;99.90;;;;;;5076041;28;20040;-84
2022/11/30 04:13:21;;;;;;;32.33;15.65;;;5.60;99.90;;;;;;5093153;28;20040;-85
2022/11/30 04:15:49;;;;;;;32.17;15.15;;;5.60;99.90;;;;;;5109325;28;20036;-85
2022/11/30 04:18:17;;;;;;;33.42;15.80;;;5.60;99.90;;;;;;5092887;28;20466;-85
2022/11/30 04:20:44;;;;;;;34.25;15.38;;;5.60;99.90;;;;;;5092684;28;20480;-85
2022/11/30 04:23:11;;;;;;;34.03;15.02;;;5.60;99.90;;;;;;5076050;28;20042;-85
2022/11/30 04:25:40;;;;;;;36.45;16.30;;;5.50;99.90;;;;;;5092578;28;20516;-85
2022/11/30 04:28:08;;;;;;;35.97;16.40;;;5.70;99.90;;;;;;5092370;28;20131;-85
2022/11/30 04:30:35;;;;;;;33.30;15.60;;;5.60;99.90;;;;;;5092349;28;20044;-85
2022/11/30 04:33:03;;;;;;;31.63;15.00;;;5.60;99.90;;;;;;5076012;28;20043;-85
2022/11/30 04:35:31;;;;;;;29.98;14.68;;;5.60;99.90;;;;;;5059926;28;20036;-85
2022/11/30 04:37:58;;;;;;;35.60;15.48;;;5.80;99.90;;;;;;5076137;28;20040;-85
2022/11/30 04:40:25;;;;;;;35.55;15.23;;;5.50;99.90;;;;;;5076181;28;20078;-85
2022/11/30 04:42:51;;;;;;;31.60;14.77;;;5.90;99.90;;;;;;5091950;28;20075;-85
2022/11/30 04:45:18;;;;;;;30.63;14.75;;;5.60;99.90;;;;;;5076041;28;20040;-85
2022/11/30 04:47:45;;;;;;;32.50;14.63;;;5.60;99.90;;;;;;5077833;28;20044;-85
2022/11/30 04:50:11;;;;;;;37.33;16.60;;;5.60;99.90;;;;;;5079343;28;20063;-85
2022/11/30 04:52:38;;;;;;;34.00;14.95;;;5.80;99.90;;;;;;5079602;28;20077;-85
2022/11/30 04:55:05;;;;;;;29.58;13.93;;;5.60;99.90;;;;;;5062702;28;20129;-85
2022/11/30 04:57:32;;;;;;;34.97;15.00;;;5.60;99.90;;;;;;5079642;28;20047;-85
2022/11/30 04:59:58;;;;;;;31.55;15.02;;;5.50;99.90;;;;;;5078972;28;20051;-85
2022/11/30 05:02:27;;;;;;;28.40;14.02;;;5.50;99.90;;;;;;5063286;28;20043;-85
2022/11/30 05:04:54;;;;;;;29.60;15.20;;;5.50;99.90;;;;;;5079713;28;20048;-84
2022/11/30 05:07:21;;;;;;;28.42;14.57;;;5.60;99.90;;;;;;5079493;28;20036;-85
2022/11/30 05:09:47;;;;;;;33.33;15.10;;;5.70;99.90;;;;;;5063244;28;20051;-85
2022/11/30 05:12:14;;;;;;;28.90;14.10;;;5.50;99.90;;;;;;5062781;28;20062;-85
2022/11/30 05:14:41;;;;;;;29.42;14.60;;;5.50;99.90;;;;;;5062719;28;20040;-85
2022/11/30 05:17:08;;;;;;;30.88;13.70;;;5.60;99.90;;;;;;5062732;28;20403;-85
2022/11/30 05:19:34;;;;;;;27.73;13.43;;;5.50;99.90;;;;;;5095815;28;20040;-85
2022/11/30 05:22:01;;;;;;;26.63;13.75;;;5.50;99.90;;;;;;5078700;28;20040;-85
2022/11/30 05:24:28;;;;;;;26.02;12.38;;;5.40;99.90;;;;;;5078879;28;20376;-85
2022/11/30 05:26:54;;;;;;;24.92;12.30;;;5.50;99.90;;;;;;5079128;28;20475;-85
2022/11/30 05:29:21;;;;;;;28.33;13.30;;;5.40;99.90;;;;;;5095352;28;20036;-85
2022/11/30 05:31:48;;;;;;;25.48;12.45;;;5.50;99.90;;;;;;5078508;28;20048;-85
2022/11/30 05:34:15;;;;;;;26.85;13.02;;;5.40;99.90;;;;;;5112466;28;20089;-85
2022/11/30 05:36:42;;;;;;;28.15;13.45;;;5.50;99.90;;;;;;5095131;28;20036;-85
2022/11/30 05:39:08;;;;;;;25.25;13.25;;;5.40;99.90;;;;;;5078547;28;20047;-85
2022/11/30 05:41:35;;;;;;;24.17;12.63;;;5.80;99.90;;;;;;5062015;28;20786;-85
2022/11/30 05:44:03;;;;;;;24.52;12.23;;;5.40;99.90;;;;;;5078360;28;20036;-85
2022/11/30 05:46:30;;;;;;;24.77;13.40;;;5.40;99.90;;;;;;5095134;28;20036;-85
2022/11/30 05:48:56;;;;;;;26.33;13.20;;;5.40;99.90;;;;;;5095231;28;20044;-85
2022/11/30 05:51:23;;;;;;;23.30;12.38;;;6.10;99.90;;;;;;5094778;28;20040;-85
2022/11/30 05:53:50;;;;;;;25.88;12.55;;;5.40;99.90;;;;;;5078235;28;20072;-85
2022/11/30 05:56:19;;;;;;;21.42;12.40;;;5.40;99.90;;;;;;5061975;28;20038;-85
2022/11/30 05:58:46;;;;;;;23.55;11.63;;;5.40;99.90;;;;;;5093671;28;20059;-85
2022/11/30 06:01:22;;;;;;;24.23;12.30;;;5.40;99.90;;;;;;5078235;28;20127;-85
2022/11/30 06:03:49;;;;;;;25.27;12.20;;;5.40;99.90;;;;;;5111898;28;20046;-85
2022/11/30 06:06:17;;;;;;;23.67;12.02;;;5.40;99.90;;;;;;5094422;28;20377;-85
2022/11/30 06:08:45;;;;;;;23.48;11.77;;;5.40;99.90;;;;;;5095035;28;20044;-85
2022/11/30 06:11:12;;;;;;;24.80;11.63;;;5.40;99.90;;;;;;5094588;28;20043;-85
2022/11/30 06:13:39;;;;;;;24.63;13.18;;;5.50;99.90;;;;;;5095566;28;20468;-85
2022/11/30 06:16:07;;;;;;;21.48;11.68;;;5.40;99.90;;;;;;5111118;28;20381;-85
2022/11/30 06:18:35;;;;;;;24.52;12.23;;;5.70;99.90;;;;;;5061875;28;20071;-85
2022/11/30 06:21:07;;;;;;;26.05;13.60;;;5.60;99.90;;;;;;5111585;28;20044;-85
2022/11/30 06:23:34;;;;;;;25.45;13.02;;;5.30;99.90;;;;;;5094552;28;20122;-85
2022/11/30 06:26:05;;;;;;;26.73;12.05;;;5.50;99.90;;;;;;5077903;28;20119;-85
2022/11/30 06:28:33;;;;;;;23.48;11.48;;;5.40;99.90;;;;;;5094431;28;20075;-85
2022/11/30 06:31:01;;;;;;;26.33;12.10;;;5.40;99.90;;;;;;5094197;28;20139;-85
2022/11/30 06:33:28;;;;;;;25.08;13.55;;;5.40;99.90;;;;;;5061179;28;20076;-85
2022/11/30 06:35:55;;;;;;;28.38;13.23;;;6.00;99.90;;;;;;5094538;28;20070;-84
2022/11/30 06:38:23;;;;;;;25.75;12.73;;;5.40;99.90;;;;;;5061686;28;20032;-85
2022/11/30 06:40:49;;;;;;;27.27;12.45;;;5.50;99.90;;;;;;5078189;28;20109;-85
2022/11/30 06:43:16;;;;;;;25.33;13.20;;;5.30;99.90;;;;;;5061161;28;20109;-84
2022/11/30 06:45:44;;;;;;;26.67;13.35;;;5.40;99.90;;;;;;5077470;28;20039;-85
2022/11/30 06:48:11;;;;;;;29.60;12.05;;;5.30;99.90;;;;;;5077238;28;20040;-84
2022/11/30 06:50:38;;;;;;;25.40;12.88;;;5.30;99.90;;;;;;5094022;28;20132;-85
2022/11/30 06:53:05;;;;;;;22.35;12.48;;;5.30;99.90;;;;;;5094273;28;20377;-85
2022/11/30 06:55:34;;;;;;;20.90;11.48;;;5.50;99.90;;;;;;5061264;28;20047;-85
2022/11/30 06:58:08;;;;;;;19.80;11.10;;;6.00;99.90;;;;;;5077867;28;20043;-85
2022/11/30 07:00:36;;;;;;;18.08;9.55;;;5.30;99.90;;;;;;5077626;28;20106;-84
2022/11/30 07:03:04;;;;;;;21.05;11.63;;;5.30;99.90;;;;;;5093817;28;20048;-85
2022/11/30 07:05:43;;;;;;;19.38;10.85;;;5.30;99.90;;;;;;5077080;28;20044;-85
2022/11/30 07:08:15;;;;;;;20.23;10.57;;;5.70;99.90;;;;;;5093651;28;20047;-85
2022/11/30 07:10:43;;;;;;;18.63;9.63;;;5.20;99.90;;;;;;5093238;28;20492;-85
2022/11/30 07:13:11;;;;;;;16.25;9.15;;;5.30;99.90;;;;;;5110000;28;20124;-85
2022/11/30 07:15:40;;;;;;;18.75;10.68;;;5.70;99.90;;;;;;5093142;28;20043;-85
2022/11/30 07:18:08;;;;;;;18.40;9.40;;;5.30;99.90;;;;;;5073013;28;20032;-84
2022/11/30 07:20:35;;;;;;;21.73;10.48;;;5.30;99.90;;;;;;5084275;28;20051;-84
2022/11/30 07:26:05;;;;;;;16.67;10.07;;;5.50;99.90;;;;;;5110049;28;20126;-85
2022/11/30 07:28:33;;;;;;;16.92;9.60;;;5.30;99.90;;;;;;5080010;28;20040;-85
2022/11/30 07:30:59;;;;;;;16.30;10.20;;;5.20;99.90;;;;;;5093007;28;20039;-84
2022/11/30 07:33:38;;;;;;;18.70;10.35;;;5.30;99.90;;;;;;5076094;28;20111;-85
2022/11/30 07:36:05;;;;;;;19.38;10.43;;;5.20;99.90;;;;;;5095732;28;20044;-84
2022/11/30 07:38:34;;;;;;;19.33;10.35;;;5.20;99.90;;;;;;5081137;28;20031;-86
2022/11/30 07:41:01;;;;;;;19.88;10.68;;;5.30;99.90;;;;;;5076040;28;20069;-85
2022/11/30 07:43:27;;;;;;;19.52;11.43;;;5.50;99.90;;;;;;5075946;28;20058;-84
2022/11/30 07:45:54;;;;;;;19.00;9.98;;;5.30;99.90;;;;;;5040178;28;20045;-88
2022/11/30 07:48:22;;;;;;;21.35;10.90;;;5.30;99.90;;;;;;5077373;28;20051;-87
2022/11/30 07:50:48;;;;;;;21.67;11.38;;;5.30;99.90;;;;;;5093737;28;20476;-88
2022/11/30 07:53:15;;;;;;;20.73;10.68;;;5.30;99.90;;;;;;5093514;28;20197;-86
2022/11/30 07:55:43;;;;;;;20.13;11.20;;;5.80;99.90;;;;;;5089705;28;20078;-90
2022/11/30 07:58:10;;;;;;;23.65;11.55;;;5.70;99.90;;;;;;5094110;28;20044;-89
2022/11/30 08:00:37;;;;;;;20.75;10.85;;;5.30;99.90;;;;;;5077436;28;20044;-89
2022/11/30 08:03:04;;;;;;;21.92;11.10;;;5.30;99.90;;;;;;5077504;28;20088;-89
2022/11/30 08:05:31;;;;;;;23.58;11.35;;;5.30;99.90;;;;;;5077631;28;20032;-89
2022/11/30 08:07:58;;;;;;;21.02;10.23;;;5.30;99.90;;;;;;5077638;28;20197;-88
2022/11/30 08:10:24;;;;;;;21.02;11.23;;;5.30;99.90;;;;;;5077408;28;20036;-88
2022/11/30 08:12:52;;;;;;;22.42;11.38;;;5.40;99.90;;;;;;5061072;28;20040;-89
2022/11/30 08:15:18;;;;;;;24.33;11.55;;;5.30;99.90;;;;;;5060864;28;20059;-89
2022/11/30 08:17:45;;;;;;;24.23;11.75;;;5.30;99.90;;;;;;5077011;28;20036;-88
2022/11/30 08:20:12;;;;;;;22.73;11.52;;;5.30;99.90;;;;;;5060920;28;20064;-88
2022/11/30 08:22:39;;;;;;;23.67;13.30;;;5.30;99.90;;;;;;5079299;28;20097;-89
2022/11/30 08:25:06;;;;;;;30.90;12.23;;;5.30;99.90;;;;;;5083784;28;20044;-89
2022/11/30 08:27:33;;;;;;;25.65;12.55;;;5.30;99.90;;;;;;5065249;28;20036;-89
2022/11/30 08:29:59;;;;;;;26.85;12.85;;;5.30;99.90;;;;;;5065128;28;20093;-88
2022/11/30 08:32:26;;;;;;;24.42;12.00;;;5.30;99.90;;;;;;5064482;28;20047;-88
2022/11/30 08:34:53;;;;;;;29.15;13.32;;;5.30;99.90;;;;;;5077207;28;20036;-89
2022/11/30 08:37:19;;;;;;;32.60;13.55;;;5.30;99.90;;;;;;5077974;28;20124;-89
2022/11/30 08:39:46;;;;;;;27.10;12.95;;;5.50;99.90;;;;;;5062357;28;20128;-88
2022/11/30 08:42:13;;;;;;;27.17;12.85;;;5.30;99.90;;;;;;5061013;28;20036;-89
2022/11/30 08:44:39;;;;;;;32.28;13.02;;;5.30;99.90;;;;;;5060926;28;20036;-89
2022/11/30 08:47:06;;;;;;;28.17;11.98;;;5.40;99.90;;;;;;5077143;28;20119;-88
2022/11/30 08:49:33;;;;;;;28.27;13.50;;;6.10;99.90;;;;;;5060714;28;20032;-89
2022/11/30 08:51:59;;;;;;;32.70;14.25;;;5.30;99.90;;;;;;5097519;28;20115;-88
2022/11/30 08:54:26;;;;;;;28.13;12.95;;;5.30;99.90;;;;;;5113745;28;20586;-84
2022/11/30 08:56:53;;;;;;;35.50;14.38;;;5.40;99.90;;;;;;5064472;28;20609;-88
2022/11/30 08:59:19;;;;;;;30.67;12.27;;;5.40;99.90;;;;;;5097332;28;20048;-89
2022/11/30 09:01:46;;;;;;;29.88;12.10;;;5.40;99.90;;;;;;5064232;28;20047;-89
2022/11/30 09:04:13;;;;;;;30.20;15.05;;;5.40;99.90;;;;;;5064631;28;20118;-89
2022/11/30 09:06:40;;;;;;;36.58;14.43;;;5.40;99.90;;;;;;5080480;28;20036;-89
2022/11/30 09:09:07;;;;;;;28.55;12.18;;;5.40;99.90;;;;;;5064071;28;20511;-87
2022/11/30 09:11:34;;;;;;;28.90;12.98;;;5.40;99.90;;;;;;5063978;28;20042;-89
2022/11/30 09:14:03;;;;;;;27.88;13.43;;;5.40;99.90;;;;;;5113756;28;20039;-88
2022/11/30 09:16:30;;;;;;;35.40;14.98;;;5.40;99.90;;;;;;5096540;28;20032;-88
2022/11/30 09:18:57;;;;;;;29.17;11.98;;;5.50;99.90;;;;;;5113957;28;20601;-89
2022/11/30 09:21:24;;;;;;;33.13;14.68;;;5.50;99.90;;;;;;5080590;28;20099;-89
2022/11/30 09:23:52;;;;;;;24.52;11.52;;;5.60;99.90;;;;;;5063639;28;20446;-89
2022/11/30 09:26:22;;;;;;;37.05;16.85;;;5.50;99.90;;;;;;5096742;28;20048;-88
2022/11/30 09:28:49;;;;;;;30.17;14.05;;;5.60;99.90;;;;;;5096643;28;20036;-89
2022/11/30 09:31:19;;;;;;;36.47;15.77;;;5.80;99.90;;;;;;5063656;28;20039;-88
2022/11/30 09:33:46;;;;;;;37.28;17.02;;;5.50;99.90;;;;;;5096222;28;20040;-87
2022/11/30 09:36:15;;;;;;;38.33;16.25;;;5.50;99.90;;;;;;5063545;28;20047;-89
2022/11/30 09:38:42;;;;;;;39.88;17.15;;;5.50;99.90;;;;;;5096163;28;20118;-89
2022/11/30 09:41:32;;;;;;;37.22;17.25;;;5.50;99.90;;;;;;5096691;28;20040;-89
2022/11/30 09:44:02;;;;;;;33.03;14.02;;;5.50;99.90;;;;;;5088315;28;20503;-89
2022/11/30 09:47:06;;;;;;;35.58;17.77;;;5.50;99.90;;;;;;5096165;28;20135;-88
2022/11/30 09:49:38;;;;;;;34.13;16.50;;;5.50;99.90;;;;;;5078504;28;20048;-84
2022/11/30 09:52:13;;;;;;;37.05;15.50;;;5.60;99.90;;;;;;5096201;28;20036;-88
2022/11/30 09:54:42;;;;;;;46.50;18.52;;;5.50;99.90;;;;;;5096119;28;20504;-88
2022/11/30 09:57:32;;;;;;;40.92;17.20;;;5.50;99.90;;;;;;5096393;28;20036;-88
2022/11/30 10:00:04;;;;;;;34.67;14.77;;;5.50;99.90;;;;;;5072604;28;20144;-88
2022/11/30 10:02:36;;;;;;;42.40;15.30;;;5.50;99.90;;;;;;5072916;28;20045;-88
2022/11/30 10:05:12;;;;;;;34.05;14.68;;;6.00;99.90;;;;;;5056020;28;20044;-88
2022/11/30 10:07:39;;;;;;;39.03;18.20;;;5.50;99.90;;;;;;5072066;28;20516;-88
2022/11/30 10:10:20;;;;;;;39.35;17.65;;;5.50;99.90;;;;;;5072129;28;20045;-88
2022/11/30 10:13:07;;;;;;;33.90;12.85;;;5.60;99.90;;;;;;5064096;28;20044;-89
2022/11/30 10:15:53;;;;;;;38.47;14.68;;;5.60;99.90;;;;;;5091132;28;20040;-89
2022/11/30 10:18:51;;;;;;;41.13;16.20;;;5.60;99.90;;;;;;5092230;28;20059;-88
2022/11/30 10:21:51;;;;;;;38.25;13.60;;;5.70;99.90;;;;;;5075714;28;20274;-88
2022/11/30 10:24:31;;;;;;;49.92;20.00;;;5.70;99.90;;;;;;5087415;28;20123;-88
2022/11/30 10:26:59;;;;;;;46.70;19.00;;;5.70;99.90;;;;;;5080414;28;20044;-89
2022/11/30 10:29:31;;;;;;;44.92;18.30;;;5.70;99.90;;;;;;5075341;28;20097;-88
2022/11/30 10:32:00;;;;;;;49.85;20.10;;;5.70;99.90;;;;;;5071961;28;20247;-88
2022/11/30 10:34:34;;;;;;;51.63;18.17;;;5.70;99.90;;;;;;5058840;28;20127;-89
2022/11/30 10:37:18;;;;;;;48.58;19.45;;;5.70;99.90;;;;;;5075655;28;20037;-89
2022/11/30 10:40:04;;;;;;;54.60;21.33;;;5.70;99.90;;;;;;5075319;28;20043;-87
2022/11/30 10:42:43;;;;;;;49.05;20.85;;;5.70;99.90;;;;;;5091805;28;20032;-89
2022/11/30 10:45:13;;;;;;;43.20;15.32;;;5.70;99.90;;;;;;5074730;28;20102;-89
2022/11/30 10:47:49;;;;;;;44.45;18.35;;;5.70;99.90;;;;;;5091439;28;20040;-89
2022/11/30 10:50:16;;;;;;;49.72;20.38;;;5.70;99.90;;;;;;5091318;28;20040;-88
2022/11/30 10:52:50;;;;;;;52.85;19.67;;;5.70;99.90;;;;;;5058626;28;20559;-89
2022/11/30 10:55:21;;;;;;;47.63;18.77;;;5.70;99.90;;;;;;5073425;28;20076;-89
2022/11/30 10:57:53;;;;;;;41.53;15.98;;;5.60;99.90;;;;;;5074318;28;20576;-89
2022/11/30 11:00:21;;;;;;;62.45;22.70;;;5.60;99.90;;;;;;5093717;28;20056;-89
2022/11/30 11:02:49;;;;;;;60.45;24.23;;;5.60;99.90;;;;;;5062206;28;20573;-89
2022/11/30 11:05:27;;;;;;;55.58;19.48;;;5.60;99.90;;;;;;5078195;28;20122;-89
2022/11/30 11:08:00;;;;;;;64.88;22.88;;;5.60;99.90;;;;;;5095445;28;20123;-90
2022/11/30 11:10:33;;;;;;;60.13;19.95;;;5.60;99.90;;;;;;5102817;28;20191;-89
2022/11/30 11:13:00;;;;;;;70.65;25.55;;;5.60;99.90;;;;;;5097060;28;20032;-87
2022/11/30 11:15:32;;;;;;;57.15;21.50;;;5.60;99.90;;;;;;5095278;28;20036;-89
2022/11/30 11:18:20;;;;;;;55.85;20.77;;;5.60;99.90;;;;;;5095688;28;20032;-88
2022/11/30 11:20:47;;;;;;;70.00;24.52;;;5.50;99.90;;;;;;5095322;28;20036;-89
2022/11/30 11:23:25;;;;;;;68.93;24.60;;;5.50;99.90;;;;;;5095543;28;20123;-89
2022/11/30 11:25:52;;;;;;;58.70;18.73;;;5.50;99.90;;;;;;5095352;28;20036;-89
2022/11/30 11:28:21;;;;;;;46.70;18.00;;;5.60;99.90;;;;;;5062720;28;20040;-90
2022/11/30 11:30:50;;;;;;;55.67;19.42;;;5.60;99.90;;;;;;5078931;28;20067;-87
2022/11/30 11:33:21;;;;;;;47.05;17.48;;;5.50;99.90;;;;;;5094987;28;20043;-88
2022/11/30 11:35:48;;;;;;;56.97;21.05;;;5.50;99.90;;;;;;5094909;28;20040;-90
2022/11/30 11:38:29;;;;;;;51.28;21.55;;;5.90;99.90;;;;;;5094911;28;20043;-89
2022/11/30 11:41:05;;;;;;;48.78;17.95;;;5.60;99.90;;;;;;5095340;28;20048;-88
2022/11/30 11:43:39;;;;;;;48.63;19.85;;;5.60;99.90;;;;;;5095050;28;20488;-89
2022/11/30 11:46:12;;;;;;;39.83;16.40;;;5.60;99.90;;;;;;5094997;28;20500;-89
2022/11/30 11:48:46;;;;;;;44.75;19.70;;;5.60;99.90;;;;;;5096379;28;20067;-89
2022/11/30 11:51:13;;;;;;;39.40;16.30;;;5.70;99.90;;;;;;5095587;28;20035;-90
2022/11/30 11:53:49;;;;;;;48.75;20.55;;;5.70;99.90;;;;;;5058297;28;20051;-89
2022/11/30 11:56:22;;;;;;;45.65;19.13;;;5.60;99.90;;;;;;5074005;28;20075;-88
2022/11/30 11:59:21;;;;;;;51.03;22.55;;;5.70;99.90;;;;;;5073664;28;20086;-90
2022/11/30 12:02:01;;;;;;;43.75;18.50;;;5.60;99.90;;;;;;5073622;28;20128;-90
2022/11/30 12:04:49;;;;;;;46.60;18.42;;;5.70;99.90;;;;;;5090727;28;20044;-89
2022/11/30 12:07:19;;;;;;;45.47;20.05;;;5.60;99.90;;;;;;5093292;28;20036;-90
2022/11/30 12:09:56;;;;;;;54.13;24.02;;;5.70;99.90;;;;;;5076425;28;20133;-89
2022/11/30 12:12:22;;;;;;;49.95;21.33;;;5.70;99.90;;;;;;5121591;28;20032;-89
2022/11/30 12:14:49;;;;;;;51.97;19.75;;;5.70;99.90;;;;;;5077652;28;20043;-89
2022/11/30 12:17:44;;;;;;;55.08;23.83;;;5.70;99.90;;;;;;5086563;28;20036;-88
2022/11/30 12:20:32;;;;;;;46.33;18.67;;;5.60;99.90;;;;;;5090495;28;20062;-89
2022/11/30 12:23:11;;;;;;;54.35;24.35;;;5.60;99.90;;;;;;5093755;28;20040;-89
2022/11/30 12:25:53;;;;;;;51.90;22.30;;;5.60;99.90;;;;;;5094011;28;20044;-89
2022/11/30 12:28:25;;;;;;;46.25;18.90;;;5.60;99.90;;;;;;5094205;28;20036;-89
2022/11/30 12:31:13;;;;;;;54.88;23.08;;;5.70;99.90;;;;;;5094304;28;20039;-88
2022/11/30 12:33:53;;;;;;;47.13;18.90;;;5.70;99.90;;;;;;5094244;28;20032;-89
2022/11/30 12:36:55;;;;;;;52.67;20.60;;;5.70;99.90;;;;;;5094436;28;20032;-89
2022/11/30 12:39:34;;;;;;;44.50;19.17;;;5.70;99.90;;;;;;5093886;28;20511;-89
2022/11/30 12:42:20;;;;;;;53.10;22.67;;;5.70;99.90;;;;;;5100612;28;20085;-89
2022/11/30 12:45:21;;;;;;;48.20;20.20;;;5.70;99.90;;;;;;5109027;28;20055;-89
2022/11/30 12:48:00;;;;;;;45.35;17.48;;;5.70;99.90;;;;;;5109878;28;20127;-89
2022/11/30 12:50:44;;;;;;;51.53;23.23;;;5.60;99.90;;;;;;5093418;28;20040;-88
2022/11/30 12:53:28;;;;;;;52.58;20.58;;;5.60;99.90;;;;;;5093544;28;20405;-89
2022/11/30 12:56:04;;;;;;;51.95;19.05;;;5.70;99.90;;;;;;5093109;28;20100;-88
2022/11/30 12:58:51;;;;;;;54.20;24.27;;;5.60;99.90;;;;;;5092914;28;20048;-89